sensor_id;sensor_type;location;lat;lon;timestamp;P1;durP1;ratioP1;P2;durP2;ratioP2
37559;SDS011;23398;50.928;7.084;2023-02-28T00:00:11;2.87;;;1.47;;
37559;SDS011;23398;50.928;7.084;2023-02-28T00:02:38;1.57;;;1.10;;
37559;SDS011;23398;50.928;7.084;2023-02-28T00:05:05;2.13;;;1.27;;
37559;SDS011;23398;50.928;7.084;2023-02-28T00:07:31;2.33;;;1.37;;
37559;SDS011;23398;50.928;7.084;2023-02-28T00:09:57;3.10;;;1.47;;
37559;SDS011;23398;50.928;7.084;2023-02-28T00:12:23;1.80;;;1.30;;
37559;SDS011;23398;50.928;7.084;2023-02-28T00:14:49;2.10;;;1.50;;
37559;SDS011;23398;50.928;7.084;2023-02-28T00:17:15;2.40;;;1.40;;
37559;SDS011;23398;50.928;7.084;2023-02-28T00:19:43;1.73;;;1.20;;
37559;SDS011;23398;50.928;7.084;2023-02-28T00:22:08;2.23;;;1.43;;
37559;SDS011;23398;50.928;7.084;2023-02-28T00:24:34;3.00;;;1.67;;
37559;SDS011;23398;50.928;7.084;2023-02-28T00:27:00;3.73;;;1.50;;
37559;SDS011;23398;50.928;7.084;2023-02-28T00:29:25;2.70;;;1.60;;
37559;SDS011;23398;50.928;7.084;2023-02-28T00:31:51;2.73;;;1.70;;
37559;SDS011;23398;50.928;7.084;2023-02-28T00:34:16;2.50;;;1.60;;
37559;SDS011;23398;50.928;7.084;2023-02-28T00:36:42;3.10;;;1.43;;
37559;SDS011;23398;50.928;7.084;2023-02-28T00:39:10;3.57;;;1.60;;
37559;SDS011;23398;50.928;7.084;2023-02-28T00:41:36;1.83;;;1.37;;
37559;SDS011;23398;50.928;7.084;2023-02-28T00:44:02;2.73;;;1.60;;
37559;SDS011;23398;50.928;7.084;2023-02-28T00:46:27;2.03;;;1.40;;
37559;SDS011;23398;50.928;7.084;2023-02-28T00:48:53;2.93;;;1.80;;
37559;SDS011;23398;50.928;7.084;2023-02-28T00:51:18;2.83;;;1.80;;
37559;SDS011;23398;50.928;7.084;2023-02-28T00:53:44;1.80;;;1.47;;
37559;SDS011;23398;50.928;7.084;2023-02-28T00:56:10;2.83;;;1.40;;
37559;SDS011;23398;50.928;7.084;2023-02-28T00:58:35;2.63;;;1.63;;
37559;SDS011;23398;50.928;7.084;2023-02-28T01:01:01;2.27;;;1.50;;
37559;SDS011;23398;50.928;7.084;2023-02-28T01:03:27;2.27;;;1.87;;
37559;SDS011;23398;50.928;7.084;2023-02-28T01:05:53;2.67;;;1.57;;
37559;SDS011;23398;50.928;7.084;2023-02-28T01:08:19;3.87;;;1.50;;
37559;SDS011;23398;50.928;7.084;2023-02-28T01:10:44;3.17;;;1.60;;
37559;SDS011;23398;50.928;7.084;2023-02-28T01:13:11;2.33;;;1.47;;
37559;SDS011;23398;50.928;7.084;2023-02-28T01:15:37;2.40;;;1.70;;
37559;SDS011;23398;50.928;7.084;2023-02-28T01:18:04;2.87;;;1.60;;
37559;SDS011;23398;50.928;7.084;2023-02-28T01:20:30;2.27;;;1.47;;
37559;SDS011;23398;50.928;7.084;2023-02-28T01:22:55;2.53;;;1.43;;
37559;SDS011;23398;50.928;7.084;2023-02-28T01:25:21;2.50;;;1.43;;
37559;SDS011;23398;50.928;7.084;2023-02-28T01:27:47;3.03;;;1.77;;
37559;SDS011;23398;50.928;7.084;2023-02-28T01:30:12;2.37;;;1.40;;
37559;SDS011;23398;50.928;7.084;2023-02-28T01:32:39;1.73;;;1.30;;
37559;SDS011;23398;50.928;7.084;2023-02-28T01:35:05;3.10;;;1.50;;
37559;SDS011;23398;50.928;7.084;2023-02-28T01:37:30;2.47;;;1.50;;
37559;SDS011;23398;50.928;7.084;2023-02-28T01:39:56;2.23;;;1.40;;
37559;SDS011;23398;50.928;7.084;2023-02-28T01:42:21;1.60;;;1.30;;
37559;SDS011;23398;50.928;7.084;2023-02-28T01:47:35;2.40;;;1.43;;
37559;SDS011;23398;50.928;7.084;2023-02-28T01:50:04;2.03;;;1.57;;
37559;SDS011;23398;50.928;7.084;2023-02-28T01:52:34;2.27;;;1.40;;
37559;SDS011;23398;50.928;7.084;2023-02-28T01:55:01;2.30;;;1.37;;
37559;SDS011;23398;50.928;7.084;2023-02-28T01:57:30;2.43;;;1.67;;
37559;SDS011;23398;50.928;7.084;2023-02-28T02:00:24;1.93;;;1.53;;
37559;SDS011;23398;50.928;7.084;2023-02-28T02:03:00;2.90;;;1.57;;
37559;SDS011;23398;50.928;7.084;2023-02-28T02:05:32;2.80;;;1.60;;
37559;SDS011;23398;50.928;7.084;2023-02-28T02:08:03;2.57;;;1.57;;
37559;SDS011;23398;50.928;7.084;2023-02-28T02:15:31;2.47;;;1.67;;
37559;SDS011;23398;50.928;7.084;2023-02-28T02:21:10;3.03;;;1.60;;
37559;SDS011;23398;50.928;7.084;2023-02-28T02:23:56;1.93;;;1.50;;
37559;SDS011;23398;50.928;7.084;2023-02-28T02:26:39;2.40;;;1.50;;
37559;SDS011;23398;50.928;7.084;2023-02-28T02:35:00;2.97;;;1.67;;
37559;SDS011;23398;50.928;7.084;2023-02-28T02:37:40;1.63;;;1.20;;
37559;SDS011;23398;50.928;7.084;2023-02-28T02:40:22;2.00;;;1.33;;
37559;SDS011;23398;50.928;7.084;2023-02-28T02:43:16;1.70;;;1.20;;
37559;SDS011;23398;50.928;7.084;2023-02-28T02:45:50;2.10;;;1.27;;
37559;SDS011;23398;50.928;7.084;2023-02-28T02:48:21;3.43;;;1.63;;
37559;SDS011;23398;50.928;7.084;2023-02-28T02:50:56;1.87;;;1.30;;
37559;SDS011;23398;50.928;7.084;2023-02-28T02:53:27;2.63;;;1.50;;
37559;SDS011;23398;50.928;7.084;2023-02-28T02:56:03;3.23;;;1.73;;
37559;SDS011;23398;50.928;7.084;2023-02-28T02:58:35;3.03;;;1.50;;
37559;SDS011;23398;50.928;7.084;2023-02-28T03:01:07;2.33;;;1.40;;
37559;SDS011;23398;50.928;7.084;2023-02-28T03:03:34;2.40;;;1.23;;
37559;SDS011;23398;50.928;7.084;2023-02-28T03:06:00;2.50;;;1.30;;
37559;SDS011;23398;50.928;7.084;2023-02-28T03:08:28;3.13;;;1.40;;
37559;SDS011;23398;50.928;7.084;2023-02-28T03:10:59;1.43;;;1.30;;
37559;SDS011;23398;50.928;7.084;2023-02-28T03:13:42;2.00;;;1.43;;
37559;SDS011;23398;50.928;7.084;2023-02-28T03:19:47;2.80;;;1.30;;
37559;SDS011;23398;50.928;7.084;2023-02-28T03:22:40;2.63;;;1.20;;
37559;SDS011;23398;50.928;7.084;2023-02-28T03:25:08;3.23;;;1.40;;
37559;SDS011;23398;50.928;7.084;2023-02-28T03:27:44;1.70;;;1.27;;
37559;SDS011;23398;50.928;7.084;2023-02-28T03:30:25;1.63;;;1.30;;
37559;SDS011;23398;50.928;7.084;2023-02-28T03:32:57;2.10;;;1.40;;
37559;SDS011;23398;50.928;7.084;2023-02-28T03:35:36;2.07;;;1.30;;
37559;SDS011;23398;50.928;7.084;2023-02-28T03:38:08;2.47;;;1.60;;
37559;SDS011;23398;50.928;7.084;2023-02-28T03:40:44;3.50;;;1.63;;
37559;SDS011;23398;50.928;7.084;2023-02-28T03:43:17;3.30;;;1.50;;
37559;SDS011;23398;50.928;7.084;2023-02-28T03:45:47;1.77;;;1.30;;
37559;SDS011;23398;50.928;7.084;2023-02-28T03:48:23;2.10;;;1.50;;
37559;SDS011;23398;50.928;7.084;2023-02-28T03:50:55;1.53;;;1.30;;
37559;SDS011;23398;50.928;7.084;2023-02-28T03:53:33;2.53;;;1.40;;
37559;SDS011;23398;50.928;7.084;2023-02-28T03:56:06;1.50;;;1.33;;
37559;SDS011;23398;50.928;7.084;2023-02-28T03:59:10;2.53;;;1.60;;
37559;SDS011;23398;50.928;7.084;2023-02-28T04:01:44;2.10;;;1.50;;
37559;SDS011;23398;50.928;7.084;2023-02-28T04:04:12;2.13;;;1.37;;
37559;SDS011;23398;50.928;7.084;2023-02-28T04:06:39;1.60;;;1.37;;
37559;SDS011;23398;50.928;7.084;2023-02-28T04:09:06;2.63;;;1.57;;
37559;SDS011;23398;50.928;7.084;2023-02-28T04:11:38;2.03;;;1.30;;
37559;SDS011;23398;50.928;7.084;2023-02-28T04:14:06;1.90;;;1.50;;
37559;SDS011;23398;50.928;7.084;2023-02-28T04:16:34;1.60;;;1.50;;
37559;SDS011;23398;50.928;7.084;2023-02-28T04:19:02;1.83;;;1.50;;
37559;SDS011;23398;50.928;7.084;2023-02-28T04:21:31;2.13;;;1.40;;
37559;SDS011;23398;50.928;7.084;2023-02-28T04:23:58;1.90;;;1.40;;
37559;SDS011;23398;50.928;7.084;2023-02-28T04:26:27;2.40;;;1.50;;
37559;SDS011;23398;50.928;7.084;2023-02-28T04:28:57;2.87;;;1.47;;
37559;SDS011;23398;50.928;7.084;2023-02-28T04:31:23;2.67;;;1.60;;
37559;SDS011;23398;50.928;7.084;2023-02-28T04:33:49;1.90;;;1.50;;
37559;SDS011;23398;50.928;7.084;2023-02-28T04:36:14;2.17;;;1.40;;
37559;SDS011;23398;50.928;7.084;2023-02-28T04:38:42;2.80;;;1.37;;
37559;SDS011;23398;50.928;7.084;2023-02-28T04:41:09;2.57;;;1.60;;
37559;SDS011;23398;50.928;7.084;2023-02-28T04:43:34;2.67;;;1.53;;
37559;SDS011;23398;50.928;7.084;2023-02-28T04:46:01;2.23;;;1.60;;
37559;SDS011;23398;50.928;7.084;2023-02-28T04:48:29;2.00;;;1.43;;
37559;SDS011;23398;50.928;7.084;2023-02-28T04:51:10;2.30;;;1.40;;
37559;SDS011;23398;50.928;7.084;2023-02-28T04:53:38;2.63;;;1.57;;
37559;SDS011;23398;50.928;7.084;2023-02-28T04:56:05;3.37;;;1.50;;
37559;SDS011;23398;50.928;7.084;2023-02-28T04:58:32;1.90;;;1.60;;
37559;SDS011;23398;50.928;7.084;2023-02-28T05:01:02;2.10;;;1.60;;
37559;SDS011;23398;50.928;7.084;2023-02-28T05:03:29;2.07;;;1.70;;
37559;SDS011;23398;50.928;7.084;2023-02-28T05:05:55;3.13;;;1.70;;
37559;SDS011;23398;50.928;7.084;2023-02-28T05:08:20;2.40;;;1.50;;
37559;SDS011;23398;50.928;7.084;2023-02-28T05:10:46;3.10;;;1.80;;
37559;SDS011;23398;50.928;7.084;2023-02-28T05:13:12;2.10;;;1.50;;
37559;SDS011;23398;50.928;7.084;2023-02-28T05:15:38;2.53;;;1.43;;
37559;SDS011;23398;50.928;7.084;2023-02-28T05:18:03;1.97;;;1.37;;
37559;SDS011;23398;50.928;7.084;2023-02-28T05:20:29;1.50;;;1.40;;
37559;SDS011;23398;50.928;7.084;2023-02-28T05:22:55;2.13;;;1.67;;
37559;SDS011;23398;50.928;7.084;2023-02-28T05:25:22;1.50;;;1.40;;
37559;SDS011;23398;50.928;7.084;2023-02-28T05:27:48;1.70;;;1.47;;
37559;SDS011;23398;50.928;7.084;2023-02-28T05:30:14;1.50;;;1.37;;
37559;SDS011;23398;50.928;7.084;2023-02-28T05:32:40;1.47;;;1.30;;
37559;SDS011;23398;50.928;7.084;2023-02-28T05:35:10;3.10;;;1.60;;
37559;SDS011;23398;50.928;7.084;2023-02-28T05:37:36;1.90;;;1.60;;
37559;SDS011;23398;50.928;7.084;2023-02-28T05:40:02;2.33;;;1.60;;
37559;SDS011;23398;50.928;7.084;2023-02-28T05:42:31;2.07;;;1.50;;
37559;SDS011;23398;50.928;7.084;2023-02-28T05:44:57;3.30;;;1.40;;
37559;SDS011;23398;50.928;7.084;2023-02-28T05:47:23;1.60;;;1.50;;
37559;SDS011;23398;50.928;7.084;2023-02-28T05:49:49;2.10;;;1.40;;
37559;SDS011;23398;50.928;7.084;2023-02-28T05:52:15;3.07;;;1.63;;
37559;SDS011;23398;50.928;7.084;2023-02-28T05:54:40;6.10;;;1.50;;
37559;SDS011;23398;50.928;7.084;2023-02-28T05:57:06;2.90;;;1.37;;
37559;SDS011;23398;50.928;7.084;2023-02-28T05:59:32;2.47;;;1.43;;
37559;SDS011;23398;50.928;7.084;2023-02-28T06:01:58;2.93;;;1.63;;
37559;SDS011;23398;50.928;7.084;2023-02-28T06:04:23;1.87;;;1.47;;
37559;SDS011;23398;50.928;7.084;2023-02-28T06:06:49;2.00;;;1.70;;
37559;SDS011;23398;50.928;7.084;2023-02-28T06:09:15;1.90;;;1.53;;
37559;SDS011;23398;50.928;7.084;2023-02-28T06:11:43;2.20;;;1.50;;
37559;SDS011;23398;50.928;7.084;2023-02-28T06:14:12;1.93;;;1.33;;
37559;SDS011;23398;50.928;7.084;2023-02-28T06:16:40;2.33;;;1.57;;
37559;SDS011;23398;50.928;7.084;2023-02-28T06:19:06;2.67;;;1.50;;
37559;SDS011;23398;50.928;7.084;2023-02-28T06:21:32;2.80;;;1.60;;
37559;SDS011;23398;50.928;7.084;2023-02-28T06:23:58;2.47;;;1.50;;
37559;SDS011;23398;50.928;7.084;2023-02-28T06:26:24;3.27;;;1.70;;
37559;SDS011;23398;50.928;7.084;2023-02-28T06:28:50;1.93;;;1.40;;
37559;SDS011;23398;50.928;7.084;2023-02-28T06:31:16;3.27;;;1.77;;
37559;SDS011;23398;50.928;7.084;2023-02-28T06:33:43;2.33;;;1.50;;
37559;SDS011;23398;50.928;7.084;2023-02-28T06:36:10;3.27;;;1.50;;
37559;SDS011;23398;50.928;7.084;2023-02-28T06:38:37;2.40;;;1.70;;
37559;SDS011;23398;50.928;7.084;2023-02-28T06:41:03;3.00;;;1.77;;
37559;SDS011;23398;50.928;7.084;2023-02-28T06:43:31;2.17;;;1.70;;
37559;SDS011;23398;50.928;7.084;2023-02-28T06:46:04;2.57;;;1.70;;
37559;SDS011;23398;50.928;7.084;2023-02-28T06:48:32;4.10;;;1.90;;
37559;SDS011;23398;50.928;7.084;2023-02-28T06:51:02;2.83;;;1.73;;
37559;SDS011;23398;50.928;7.084;2023-02-28T06:53:39;2.73;;;1.50;;
37559;SDS011;23398;50.928;7.084;2023-02-28T06:56:06;2.03;;;1.60;;
37559;SDS011;23398;50.928;7.084;2023-02-28T06:58:33;2.73;;;1.80;;
37559;SDS011;23398;50.928;7.084;2023-02-28T07:00:59;2.50;;;1.70;;
37559;SDS011;23398;50.928;7.084;2023-02-28T07:03:26;2.47;;;1.67;;
37559;SDS011;23398;50.928;7.084;2023-02-28T07:05:51;2.73;;;1.90;;
37559;SDS011;23398;50.928;7.084;2023-02-28T07:08:17;2.20;;;1.83;;
37559;SDS011;23398;50.928;7.084;2023-02-28T07:10:42;1.87;;;1.60;;
37559;SDS011;23398;50.928;7.084;2023-02-28T07:13:08;2.97;;;2.00;;
37559;SDS011;23398;50.928;7.084;2023-02-28T07:15:35;3.33;;;1.93;;
37559;SDS011;23398;50.928;7.084;2023-02-28T07:18:01;2.07;;;1.67;;
37559;SDS011;23398;50.928;7.084;2023-02-28T07:20:27;2.27;;;1.70;;
37559;SDS011;23398;50.928;7.084;2023-02-28T07:22:52;3.07;;;1.80;;
37559;SDS011;23398;50.928;7.084;2023-02-28T07:25:25;3.27;;;1.70;;
37559;SDS011;23398;50.928;7.084;2023-02-28T07:27:51;2.40;;;2.07;;
37559;SDS011;23398;50.928;7.084;2023-02-28T07:30:18;2.67;;;1.80;;
37559;SDS011;23398;50.928;7.084;2023-02-28T07:32:43;3.00;;;1.60;;
37559;SDS011;23398;50.928;7.084;2023-02-28T07:35:10;3.40;;;1.90;;
37559;SDS011;23398;50.928;7.084;2023-02-28T07:37:35;2.00;;;1.70;;
37559;SDS011;23398;50.928;7.084;2023-02-28T07:40:04;2.13;;;1.80;;
37559;SDS011;23398;50.928;7.084;2023-02-28T07:42:33;3.20;;;1.57;;
37559;SDS011;23398;50.928;7.084;2023-02-28T07:44:59;3.22;;;1.60;;
37559;SDS011;23398;50.928;7.084;2023-02-28T07:47:25;2.20;;;1.70;;
37559;SDS011;23398;50.928;7.084;2023-02-28T07:49:51;3.47;;;1.55;;
37559;SDS011;23398;50.928;7.084;2023-02-28T07:52:16;2.25;;;1.70;;
37559;SDS011;23398;50.928;7.084;2023-02-28T07:54:42;1.70;;;1.50;;
37559;SDS011;23398;50.928;7.084;2023-02-28T07:57:08;1.83;;;1.50;;
37559;SDS011;23398;50.928;7.084;2023-02-28T07:59:33;2.20;;;1.58;;
37559;SDS011;23398;50.928;7.084;2023-02-28T08:01:59;1.60;;;1.50;;
37559;SDS011;23398;50.928;7.084;2023-02-28T08:04:25;1.55;;;1.30;;
37559;SDS011;23398;50.928;7.084;2023-02-28T08:06:50;2.17;;;1.50;;
37559;SDS011;23398;50.928;7.084;2023-02-28T08:09:18;1.58;;;1.30;;
37559;SDS011;23398;50.928;7.084;2023-02-28T08:11:44;1.73;;;1.38;;
37559;SDS011;23398;50.928;7.084;2023-02-28T08:14:10;1.40;;;1.25;;
37559;SDS011;23398;50.928;7.084;2023-02-28T08:16:35;1.58;;;1.20;;
37559;SDS011;23398;50.928;7.084;2023-02-28T08:19:01;1.50;;;1.25;;
37559;SDS011;23398;50.928;7.084;2023-02-28T08:21:26;2.30;;;1.30;;
37559;SDS011;23398;50.928;7.084;2023-02-28T08:23:52;1.63;;;1.35;;
37559;SDS011;23398;50.928;7.084;2023-02-28T08:26:18;1.75;;;1.40;;
37559;SDS011;23398;50.928;7.084;2023-02-28T08:28:44;1.45;;;1.20;;
37559;SDS011;23398;50.928;7.084;2023-02-28T08:31:11;1.65;;;1.35;;
37559;SDS011;23398;50.928;7.084;2023-02-28T08:33:38;1.42;;;1.23;;
37559;SDS011;23398;50.928;7.084;2023-02-28T08:36:05;1.55;;;1.38;;
37559;SDS011;23398;50.928;7.084;2023-02-28T08:38:31;1.40;;;1.30;;
37559;SDS011;23398;50.928;7.084;2023-02-28T08:40:58;1.40;;;1.20;;
37559;SDS011;23398;50.928;7.084;2023-02-28T08:43:25;1.50;;;1.23;;
37559;SDS011;23398;50.928;7.084;2023-02-28T08:45:52;1.30;;;1.00;;
37559;SDS011;23398;50.928;7.084;2023-02-28T08:48:18;2.10;;;1.48;;
37559;SDS011;23398;50.928;7.084;2023-02-28T08:50:43;1.33;;;1.15;;
37559;SDS011;23398;50.928;7.084;2023-02-28T08:53:09;1.83;;;1.13;;
37559;SDS011;23398;50.928;7.084;2023-02-28T08:55:35;1.70;;;1.30;;
37559;SDS011;23398;50.928;7.084;2023-02-28T08:58:01;1.80;;;1.30;;
37559;SDS011;23398;50.928;7.084;2023-02-28T09:00:26;1.70;;;1.15;;
37559;SDS011;23398;50.928;7.084;2023-02-28T09:02:52;1.65;;;1.25;;
37559;SDS011;23398;50.928;7.084;2023-02-28T09:05:19;1.20;;;1.10;;
37559;SDS011;23398;50.928;7.084;2023-02-28T09:07:45;1.70;;;1.08;;
37559;SDS011;23398;50.928;7.084;2023-02-28T09:10:10;1.42;;;1.17;;
37559;SDS011;23398;50.928;7.084;2023-02-28T09:12:36;1.85;;;1.30;;
37559;SDS011;23398;50.928;7.084;2023-02-28T09:15:02;1.90;;;1.20;;
37559;SDS011;23398;50.928;7.084;2023-02-28T09:17:28;1.40;;;1.30;;
37559;SDS011;23398;50.928;7.084;2023-02-28T09:19:53;1.20;;;1.10;;
37559;SDS011;23398;50.928;7.084;2023-02-28T09:22:19;1.20;;;1.00;;
37559;SDS011;23398;50.928;7.084;2023-02-28T09:24:45;1.50;;;1.10;;
37559;SDS011;23398;50.928;7.084;2023-02-28T09:27:10;1.73;;;1.20;;
37559;SDS011;23398;50.928;7.084;2023-02-28T09:29:36;2.30;;;1.15;;
37559;SDS011;23398;50.928;7.084;2023-02-28T09:32:02;1.67;;;1.35;;
37559;SDS011;23398;50.928;7.084;2023-02-28T09:34:28;1.50;;;1.20;;
37559;SDS011;23398;50.928;7.084;2023-02-28T09:36:56;2.88;;;1.10;;
37559;SDS011;23398;50.928;7.084;2023-02-28T09:39:22;1.35;;;1.00;;
37559;SDS011;23398;50.928;7.084;2023-02-28T09:41:50;1.08;;;0.98;;
37559;SDS011;23398;50.928;7.084;2023-02-28T09:44:22;1.27;;;1.08;;
37559;SDS011;23398;50.928;7.084;2023-02-28T09:47:10;2.10;;;1.13;;
37559;SDS011;23398;50.928;7.084;2023-02-28T09:49:41;1.60;;;1.15;;
37559;SDS011;23398;50.928;7.084;2023-02-28T09:52:16;1.35;;;1.25;;
37559;SDS011;23398;50.928;7.084;2023-02-28T09:54:45;1.52;;;1.20;;
37559;SDS011;23398;50.928;7.084;2023-02-28T10:02:44;1.75;;;1.20;;
37559;SDS011;23398;50.928;7.084;2023-02-28T10:05:14;1.15;;;1.05;;
37559;SDS011;23398;50.928;7.084;2023-02-28T10:07:50;1.20;;;1.10;;
37559;SDS011;23398;50.928;7.084;2023-02-28T10:10:21;1.50;;;1.17;;
37559;SDS011;23398;50.928;7.084;2023-02-28T10:12:52;1.52;;;1.30;;
37559;SDS011;23398;50.928;7.084;2023-02-28T10:15:19;1.27;;;1.17;;
37559;SDS011;23398;50.928;7.084;2023-02-28T10:17:49;1.20;;;1.10;;
37559;SDS011;23398;50.928;7.084;2023-02-28T10:20:28;1.27;;;1.17;;
37559;SDS011;23398;50.928;7.084;2023-02-28T10:25:34;1.70;;;1.30;;
37559;SDS011;23398;50.928;7.084;2023-02-28T10:28:08;1.73;;;1.30;;
37559;SDS011;23398;50.928;7.084;2023-02-28T12:16:44;2.38;;;1.70;;
37559;SDS011;23398;50.928;7.084;2023-02-28T12:20:17;2.88;;;1.50;;
37559;SDS011;23398;50.928;7.084;2023-02-28T12:27:42;2.13;;;1.70;;
37559;SDS011;23398;50.928;7.084;2023-02-28T12:30:27;2.17;;;1.63;;
37559;SDS011;23398;50.928;7.084;2023-02-28T12:32:56;2.35;;;1.70;;
37559;SDS011;23398;50.928;7.084;2023-02-28T12:38:24;3.53;;;1.80;;
37559;SDS011;23398;50.928;7.084;2023-02-28T12:40:58;2.85;;;1.80;;
37559;SDS011;23398;50.928;7.084;2023-02-28T12:43:32;2.83;;;2.05;;
37559;SDS011;23398;50.928;7.084;2023-02-28T12:46:07;2.22;;;1.92;;
37559;SDS011;23398;50.928;7.084;2023-02-28T12:48:43;3.13;;;1.90;;
37559;SDS011;23398;50.928;7.084;2023-02-28T12:51:12;2.13;;;1.90;;
37559;SDS011;23398;50.928;7.084;2023-02-28T13:01:49;3.22;;;1.90;;
37559;SDS011;23398;50.928;7.084;2023-02-28T13:10:06;2.47;;;1.80;;
37559;SDS011;23398;50.928;7.084;2023-02-28T13:12:33;2.00;;;1.63;;
37559;SDS011;23398;50.928;7.084;2023-02-28T13:17:54;3.30;;;1.85;;
37559;SDS011;23398;50.928;7.084;2023-02-28T13:22:52;3.35;;;1.95;;
37559;SDS011;23398;50.928;7.084;2023-02-28T13:27:54;3.72;;;1.88;;
37559;SDS011;23398;50.928;7.084;2023-02-28T13:35:45;3.30;;;2.10;;
37559;SDS011;23398;50.928;7.084;2023-02-28T13:38:21;2.42;;;1.92;;
37559;SDS011;23398;50.928;7.084;2023-02-28T13:40:49;3.17;;;2.10;;
37559;SDS011;23398;50.928;7.084;2023-02-28T13:43:16;2.20;;;1.92;;
37559;SDS011;23398;50.928;7.084;2023-02-28T13:46:03;2.70;;;2.00;;
37559;SDS011;23398;50.928;7.084;2023-02-28T13:48:36;2.45;;;1.90;;
37559;SDS011;23398;50.928;7.084;2023-02-28T13:51:25;2.22;;;2.00;;
37559;SDS011;23398;50.928;7.084;2023-02-28T13:59:53;2.55;;;2.10;;
37559;SDS011;23398;50.928;7.084;2023-02-28T14:05:36;2.00;;;1.75;;
37559;SDS011;23398;50.928;7.084;2023-02-28T14:10:46;1.70;;;1.60;;
37559;SDS011;23398;50.928;7.084;2023-02-28T14:16:04;2.40;;;1.75;;
37559;SDS011;23398;50.928;7.084;2023-02-28T14:18:32;2.40;;;1.88;;
37559;SDS011;23398;50.928;7.084;2023-02-28T14:28:49;2.97;;;1.75;;
37559;SDS011;23398;50.928;7.084;2023-02-28T14:31:24;3.90;;;1.98;;
37559;SDS011;23398;50.928;7.084;2023-02-28T14:37:11;2.65;;;2.13;;
37559;SDS011;23398;50.928;7.084;2023-02-28T14:39:41;4.05;;;2.00;;
37559;SDS011;23398;50.928;7.084;2023-02-28T14:45:00;2.80;;;2.28;;
37559;SDS011;23398;50.928;7.084;2023-02-28T14:47:33;2.20;;;1.90;;
37559;SDS011;23398;50.928;7.084;2023-02-28T14:50:01;2.92;;;2.03;;
37559;SDS011;23398;50.928;7.084;2023-02-28T14:52:29;3.17;;;2.10;;
37559;SDS011;23398;50.928;7.084;2023-02-28T14:54:58;3.72;;;2.40;;
37559;SDS011;23398;50.928;7.084;2023-02-28T14:57:32;3.00;;;2.30;;
37559;SDS011;23398;50.928;7.084;2023-02-28T15:00:18;3.15;;;1.88;;
37559;SDS011;23398;50.928;7.084;2023-02-28T15:02:53;2.42;;;2.00;;
37559;SDS011;23398;50.928;7.084;2023-02-28T15:05:24;2.80;;;1.88;;
37559;SDS011;23398;50.928;7.084;2023-02-28T15:10:39;2.90;;;2.03;;
37559;SDS011;23398;50.928;7.084;2023-02-28T15:13:10;1.95;;;1.73;;
37559;SDS011;23398;50.928;7.084;2023-02-28T15:18:12;2.35;;;1.92;;
37559;SDS011;23398;50.928;7.084;2023-02-28T15:21:04;2.03;;;1.80;;
37559;SDS011;23398;50.928;7.084;2023-02-28T15:23:42;2.45;;;2.17;;
37559;SDS011;23398;50.928;7.084;2023-02-28T15:26:15;2.85;;;2.17;;
37559;SDS011;23398;50.928;7.084;2023-02-28T15:28:44;2.33;;;1.83;;
37559;SDS011;23398;50.928;7.084;2023-02-28T15:31:21;2.50;;;2.22;;
37559;SDS011;23398;50.928;7.084;2023-02-28T15:33:53;2.60;;;2.10;;
37559;SDS011;23398;50.928;7.084;2023-02-28T15:36:21;2.10;;;1.90;;
37559;SDS011;23398;50.928;7.084;2023-02-28T15:38:52;4.28;;;2.10;;
37559;SDS011;23398;50.928;7.084;2023-02-28T15:41:25;3.30;;;2.20;;
37559;SDS011;23398;50.928;7.084;2023-02-28T15:49:44;3.60;;;2.13;;
37559;SDS011;23398;50.928;7.084;2023-02-28T15:52:21;2.03;;;1.83;;
37559;SDS011;23398;50.928;7.084;2023-02-28T15:55:28;3.00;;;1.80;;
37559;SDS011;23398;50.928;7.084;2023-02-28T15:57:55;4.32;;;1.80;;
37559;SDS011;23398;50.928;7.084;2023-02-28T16:00:25;2.50;;;2.00;;
37559;SDS011;23398;50.928;7.084;2023-02-28T16:02:52;2.55;;;2.08;;
37559;SDS011;23398;50.928;7.084;2023-02-28T16:08:00;2.42;;;1.98;;
37559;SDS011;23398;50.928;7.084;2023-02-28T16:10:36;2.00;;;1.80;;
37559;SDS011;23398;50.928;7.084;2023-02-28T16:13:01;2.40;;;1.85;;
37559;SDS011;23398;50.928;7.084;2023-02-28T16:15:31;2.00;;;1.73;;
37559;SDS011;23398;50.928;7.084;2023-02-28T16:18:07;2.40;;;1.90;;
37559;SDS011;23398;50.928;7.084;2023-02-28T16:20:37;2.30;;;1.80;;
37559;SDS011;23398;50.928;7.084;2023-02-28T16:23:03;3.13;;;2.10;;
37559;SDS011;23398;50.928;7.084;2023-02-28T16:25:33;2.70;;;2.15;;
37559;SDS011;23398;50.928;7.084;2023-02-28T16:27:59;2.13;;;1.92;;
37559;SDS011;23398;50.928;7.084;2023-02-28T16:30:26;2.50;;;1.88;;
37559;SDS011;23398;50.928;7.084;2023-02-28T16:32:56;2.33;;;1.80;;
37559;SDS011;23398;50.928;7.084;2023-02-28T16:35:22;1.85;;;1.73;;
37559;SDS011;23398;50.928;7.084;2023-02-28T16:37:48;2.70;;;1.80;;
37559;SDS011;23398;50.928;7.084;2023-02-28T16:40:18;2.05;;;1.80;;
37559;SDS011;23398;50.928;7.084;2023-02-28T16:42:50;2.00;;;1.70;;
37559;SDS011;23398;50.928;7.084;2023-02-28T16:45:20;1.70;;;1.55;;
37559;SDS011;23398;50.928;7.084;2023-02-28T16:47:47;2.85;;;1.80;;
37559;SDS011;23398;50.928;7.084;2023-02-28T16:50:16;1.70;;;1.60;;
37559;SDS011;23398;50.928;7.084;2023-02-28T16:52:43;2.30;;;1.80;;
37559;SDS011;23398;50.928;7.084;2023-02-28T16:55:09;2.30;;;1.75;;
37559;SDS011;23398;50.928;7.084;2023-02-28T16:57:35;2.22;;;1.63;;
37559;SDS011;23398;50.928;7.084;2023-02-28T17:00:02;2.08;;;1.70;;
37559;SDS011;23398;50.928;7.084;2023-02-28T17:02:30;2.17;;;1.75;;
37559;SDS011;23398;50.928;7.084;2023-02-28T17:04:55;2.10;;;1.67;;
37559;SDS011;23398;50.928;7.084;2023-02-28T17:07:21;2.38;;;1.90;;
37559;SDS011;23398;50.928;7.084;2023-02-28T17:09:46;2.42;;;1.75;;
37559;SDS011;23398;50.928;7.084;2023-02-28T17:12:12;3.13;;;2.22;;
37559;SDS011;23398;50.928;7.084;2023-02-28T17:14:38;2.17;;;1.88;;
37559;SDS011;23398;50.928;7.084;2023-02-28T17:17:04;2.20;;;1.88;;
37559;SDS011;23398;50.928;7.084;2023-02-28T17:19:30;2.13;;;1.85;;
37559;SDS011;23398;50.928;7.084;2023-02-28T17:21:56;2.00;;;1.73;;
37559;SDS011;23398;50.928;7.084;2023-02-28T17:24:22;2.00;;;1.50;;
37559;SDS011;23398;50.928;7.084;2023-02-28T17:26:47;2.38;;;1.50;;
37559;SDS011;23398;50.928;7.084;2023-02-28T17:29:18;1.90;;;1.63;;
37559;SDS011;23398;50.928;7.084;2023-02-28T17:31:45;1.52;;;1.42;;
37559;SDS011;23398;50.928;7.084;2023-02-28T17:34:11;2.97;;;1.80;;
37559;SDS011;23398;50.928;7.084;2023-02-28T17:36:42;2.58;;;1.67;;
37559;SDS011;23398;50.928;7.084;2023-02-28T17:39:09;1.75;;;1.40;;
37559;SDS011;23398;50.928;7.084;2023-02-28T17:41:38;2.58;;;1.45;;
37559;SDS011;23398;50.928;7.084;2023-02-28T17:44:07;2.38;;;1.30;;
37559;SDS011;23398;50.928;7.084;2023-02-28T17:46:33;1.92;;;1.70;;
37559;SDS011;23398;50.928;7.084;2023-02-28T17:48:59;1.52;;;1.33;;
37559;SDS011;23398;50.928;7.084;2023-02-28T17:51:25;2.67;;;1.40;;
37559;SDS011;23398;50.928;7.084;2023-02-28T17:53:51;2.65;;;1.52;;
37559;SDS011;23398;50.928;7.084;2023-02-28T17:56:18;1.47;;;1.27;;
37559;SDS011;23398;50.928;7.084;2023-02-28T17:58:48;2.25;;;1.33;;
37559;SDS011;23398;50.928;7.084;2023-02-28T18:01:15;2.10;;;1.40;;
37559;SDS011;23398;50.928;7.084;2023-02-28T18:03:41;2.20;;;1.60;;
37559;SDS011;23398;50.928;7.084;2023-02-28T18:06:09;1.50;;;1.30;;
37559;SDS011;23398;50.928;7.084;2023-02-28T18:08:40;2.53;;;1.50;;
37559;SDS011;23398;50.928;7.084;2023-02-28T18:11:06;2.10;;;1.52;;
37559;SDS011;23398;50.928;7.084;2023-02-28T18:13:41;2.53;;;1.63;;
37559;SDS011;23398;50.928;7.084;2023-02-28T18:16:15;2.90;;;1.20;;
37559;SDS011;23398;50.928;7.084;2023-02-28T18:18:41;1.57;;;1.47;;
37559;SDS011;23398;50.928;7.084;2023-02-28T18:21:08;3.08;;;1.42;;
37559;SDS011;23398;50.928;7.084;2023-02-28T18:23:36;1.93;;;1.50;;
37559;SDS011;23398;50.928;7.084;2023-02-28T18:26:05;1.83;;;1.40;;
37559;SDS011;23398;50.928;7.084;2023-02-28T18:28:32;2.77;;;1.40;;
37559;SDS011;23398;50.928;7.084;2023-02-28T18:31:04;1.87;;;1.30;;